sensor_id;sensor_type;location;lat;lon;timestamp;pressure;altitude;pressure_sealevel;temperature;humidity
22753;BME280;11543;43.144;24.684;2023-09-18T00:01:04;99297.00;;;20.75;69.87
22753;BME280;11543;43.144;24.684;2023-09-18T00:03:31;99295.31;;;20.67;70.17
22753;BME280;11543;43.144;24.684;2023-09-18T00:05:56;99282.72;;;20.53;70.56
22753;BME280;11543;43.144;24.684;2023-09-18T00:08:22;99273.91;;;20.51;70.80
22753;BME280;11543;43.144;24.684;2023-09-18T00:10:53;99285.88;;;20.63;70.68
22753;BME280;11543;43.144;24.684;2023-09-18T00:13:19;99276.63;;;20.64;70.67
22753;BME280;11543;43.144;24.684;2023-09-18T00:15:45;99272.66;;;20.60;70.56
22753;BME280;11543;43.144;24.684;2023-09-18T00:18:16;99294.69;;;20.72;70.37
22753;BME280;11543;43.144;24.684;2023-09-18T00:20:42;99288.59;;;20.63;70.13
22753;BME280;11543;43.144;24.684;2023-09-18T00:23:09;99291.09;;;20.58;70.50
22753;BME280;11543;43.144;24.684;2023-09-18T00:25:34;99303.28;;;20.55;70.43
22753;BME280;11543;43.144;24.684;2023-09-18T00:28:00;99296.56;;;20.58;70.46
22753;BME280;11543;43.144;24.684;2023-09-18T00:30:25;99292.78;;;20.46;70.87
22753;BME280;11543;43.144;24.684;2023-09-18T00:32:51;99288.75;;;20.35;70.95
22753;BME280;11543;43.144;24.684;2023-09-18T00:35:17;99299.22;;;20.31;71.21
22753;BME280;11543;43.144;24.684;2023-09-18T00:37:44;99293.13;;;20.29;71.31
22753;BME280;11543;43.144;24.684;2023-09-18T00:40:10;99288.94;;;20.33;70.90
22753;BME280;11543;43.144;24.684;2023-09-18T00:42:36;99284.75;;;20.38;70.60
22753;BME280;11543;43.144;24.684;2023-09-18T00:45:02;99293.81;;;20.45;70.30
22753;BME280;11543;43.144;24.684;2023-09-18T00:47:28;99279.72;;;20.34;70.33
22753;BME280;11543;43.144;24.684;2023-09-18T00:49:54;99290.47;;;20.43;70.50
22753;BME280;11543;43.144;24.684;2023-09-18T00:52:21;99293.41;;;20.48;70.50
22753;BME280;11543;43.144;24.684;2023-09-18T00:54:49;99290.69;;;20.48;70.49
22753;BME280;11543;43.144;24.684;2023-09-18T00:57:15;99287.31;;;20.46;70.42
22753;BME280;11543;43.144;24.684;2023-09-18T00:59:41;99286.28;;;20.47;70.37
22753;BME280;11543;43.144;24.684;2023-09-18T01:02:07;99285.22;;;20.48;70.37
22753;BME280;11543;43.144;24.684;2023-09-18T01:04:34;99290.69;;;20.48;70.42
22753;BME280;11543;43.144;24.684;2023-09-18T01:07:00;99276.84;;;20.43;70.30
22753;BME280;11543;43.144;24.684;2023-09-18T01:09:30;99280.19;;;20.45;70.42
22753;BME280;11543;43.144;24.684;2023-09-18T01:12:18;99290.25;;;20.51;70.18
22753;BME280;11543;43.144;24.684;2023-09-18T01:15:21;99290.69;;;20.48;70.70
22753;BME280;11543;43.144;24.684;2023-09-18T01:17:48;99283.75;;;20.45;70.53
22753;BME280;11543;43.144;24.684;2023-09-18T01:20:15;99280.59;;;20.42;70.74
22753;BME280;11543;43.144;24.684;2023-09-18T01:22:40;99281.25;;;20.44;70.33
22753;BME280;11543;43.144;24.684;2023-09-18T01:25:06;99273.06;;;20.44;70.18
22753;BME280;11543;43.144;24.684;2023-09-18T01:27:32;99290.25;;;20.51;70.31
22753;BME280;11543;43.144;24.684;2023-09-18T01:29:58;99274.31;;;20.48;70.51
22753;BME280;11543;43.144;24.684;2023-09-18T01:32:26;99286.91;;;20.49;70.53
22753;BME280;11543;43.144;24.684;2023-09-18T01:34:56;99273.03;;;20.37;70.45
22753;BME280;11543;43.144;24.684;2023-09-18T01:37:24;99290.25;;;20.44;70.33
22753;BME280;11543;43.144;24.684;2023-09-18T01:39:51;99289.38;;;20.30;70.74
22753;BME280;11543;43.144;24.684;2023-09-18T01:42:18;99277.81;;;20.15;71.30
22753;BME280;11543;43.144;24.684;2023-09-18T01:44:44;99282.22;;;20.23;70.96
22753;BME280;11543;43.144;24.684;2023-09-18T01:47:12;99286.19;;;20.20;70.94
22753;BME280;11543;43.144;24.684;2023-09-18T01:49:40;99292.28;;;20.22;70.64
22753;BME280;11543;43.144;24.684;2023-09-18T01:52:07;99284.53;;;20.19;70.84
22753;BME280;11543;43.144;24.684;2023-09-18T01:54:34;99276.75;;;20.16;70.58
22753;BME280;11543;43.144;24.684;2023-09-18T01:57:00;99292.69;;;20.19;70.34
22753;BME280;11543;43.144;24.684;2023-09-18T01:59:26;99294.78;;;20.17;70.43
22753;BME280;11543;43.144;24.684;2023-09-18T02:01:52;99289.34;;;20.17;70.50
22753;BME280;11543;43.144;24.684;2023-09-18T02:04:19;99295.84;;;20.16;70.27
22753;BME280;11543;43.144;24.684;2023-09-18T02:06:48;99285.53;;;20.05;70.49
22753;BME280;11543;43.144;24.684;2023-09-18T02:09:14;99297.25;;;19.99;70.51
22753;BME280;11543;43.144;24.684;2023-09-18T02:11:42;99302.69;;;19.99;70.68
22753;BME280;11543;43.144;24.684;2023-09-18T02:14:08;99290.88;;;19.85;71.14
22753;BME280;11543;43.144;24.684;2023-09-18T02:16:36;99289.41;;;19.83;71.04
22753;BME280;11543;43.144;24.684;2023-09-18T02:19:03;99291.28;;;19.82;71.28
22753;BME280;11543;43.144;24.684;2023-09-18T02:21:29;99295.50;;;19.85;71.25
22753;BME280;11543;43.144;24.684;2023-09-18T02:23:54;99297.59;;;19.83;71.31
22753;BME280;11543;43.144;24.684;2023-09-18T02:26:21;99300.94;;;19.85;71.21
22753;BME280;11543;43.144;24.684;2023-09-18T02:28:47;99297.16;;;19.79;70.99
22753;BME280;11543;43.144;24.684;2023-09-18T02:31:13;99299.25;;;19.84;71.10
22753;BME280;11543;43.144;24.684;2023-09-18T02:33:39;99286.66;;;19.76;70.95
22753;BME280;11543;43.144;24.684;2023-09-18T02:36:05;99297.94;;;19.66;71.43
22753;BME280;11543;43.144;24.684;2023-09-18T02:38:32;99300.97;;;19.50;71.72
22753;BME280;11543;43.144;24.684;2023-09-18T02:40:58;99302.34;;;19.33;72.22
22753;BME280;11543;43.144;24.684;2023-09-18T02:43:24;99311.94;;;19.29;72.56
22753;BME280;11543;43.144;24.684;2023-09-18T02:45:49;99303.34;;;19.25;72.97
22753;BME280;11543;43.144;24.684;2023-09-18T02:48:15;99317.38;;;19.29;73.16
22753;BME280;11543;43.144;24.684;2023-09-18T02:50:41;99311.69;;;19.24;73.23
22753;BME280;11543;43.144;24.684;2023-09-18T02:53:11;99298.00;;;19.11;73.24
22753;BME280;11543;43.144;24.684;2023-09-18T02:55:36;99313.84;;;19.07;73.67
22753;BME280;11543;43.144;24.684;2023-09-18T02:58:02;99299.31;;;18.93;73.91
22753;BME280;11543;43.144;24.684;2023-09-18T03:00:28;99317.81;;;19.04;74.08
22753;BME280;11543;43.144;24.684;2023-09-18T03:02:54;99313.28;;;19.12;74.11
22753;BME280;11543;43.144;24.684;2023-09-18T03:05:19;99315.63;;;19.15;74.14
22753;BME280;11543;43.144;24.684;2023-09-18T03:07:45;99318.97;;;19.17;74.33
22753;BME280;11543;43.144;24.684;2023-09-18T03:10:11;99321.94;;;19.22;74.15
22753;BME280;11543;43.144;24.684;2023-09-18T03:12:39;99320.25;;;19.21;74.17
22753;BME280;11543;43.144;24.684;2023-09-18T03:15:05;99309.78;;;19.18;74.08
22753;BME280;11543;43.144;24.684;2023-09-18T03:17:31;99314.81;;;19.21;74.17
22753;BME280;11543;43.144;24.684;2023-09-18T03:19:57;99322.34;;;19.19;74.13
22753;BME280;11543;43.144;24.684;2023-09-18T03:22:22;99318.34;;;19.15;74.27
22753;BME280;11543;43.144;24.684;2023-09-18T03:24:48;99315.22;;;19.18;74.15
22753;BME280;11543;43.144;24.684;2023-09-18T03:27:13;99320.25;;;19.21;74.26
22753;BME280;11543;43.144;24.684;2023-09-18T03:29:39;99316.50;;;19.22;74.25
22753;BME280;11543;43.144;24.684;2023-09-18T03:32:04;99316.09;;;19.25;73.68
22753;BME280;11543;43.144;24.684;2023-09-18T03:34:30;99322.19;;;19.27;73.69
22753;BME280;11543;43.144;24.684;2023-09-18T03:36:55;99314.41;;;19.24;73.33
22753;BME280;11543;43.144;24.684;2023-09-18T03:39:21;99325.13;;;19.32;73.00
22753;BME280;11543;43.144;24.684;2023-09-18T03:41:46;99305.63;;;19.22;73.14
22753;BME280;11543;43.144;24.684;2023-09-18T03:44:12;99310.84;;;19.23;73.39
22753;BME280;11543;43.144;24.684;2023-09-18T03:46:37;99319.84;;;19.24;73.20
22753;BME280;11543;43.144;24.684;2023-09-18T03:49:03;99324.50;;;19.30;73.10
22753;BME280;11543;43.144;24.684;2023-09-18T03:51:29;99323.22;;;19.26;73.13
22753;BME280;11543;43.144;24.684;2023-09-18T03:53:55;99327.88;;;19.32;72.89
22753;BME280;11543;43.144;24.684;2023-09-18T03:56:21;99325.34;;;19.30;72.74
22753;BME280;11543;43.144;24.684;2023-09-18T03:58:47;99313.19;;;19.26;72.70
22753;BME280;11543;43.144;24.684;2023-09-18T04:01:17;99329.16;;;19.36;72.86
22753;BME280;11543;43.144;24.684;2023-09-18T04:03:43;99325.38;;;19.37;72.94
22753;BME280;11543;43.144;24.684;2023-09-18T04:06:08;99319.47;;;19.27;73.24
22753;BME280;11543;43.144;24.684;2023-09-18T04:08:34;99321.84;;;19.08;73.44
22753;BME280;11543;43.144;24.684;2023-09-18T04:11:00;99326.59;;;19.06;74.11
22753;BME280;11543;43.144;24.684;2023-09-18T04:13:25;99320.44;;;18.91;73.90
22753;BME280;11543;43.144;24.684;2023-09-18T04:15:51;99328.09;;;18.81;74.29
22753;BME280;11543;43.144;24.684;2023-09-18T04:18:22;99329.91;;;18.74;74.72
22753;BME280;11543;43.144;24.684;2023-09-18T04:20:48;99325.25;;;18.68;74.84
22753;BME280;11543;43.144;24.684;2023-09-18T04:23:23;99332.66;;;18.59;75.00
22753;BME280;11543;43.144;24.684;2023-09-18T04:25:49;99335.72;;;18.50;75.18
22753;BME280;11543;43.144;24.684;2023-09-18T04:28:17;99331.25;;;18.42;75.49
22753;BME280;11543;43.144;24.684;2023-09-18T04:30:44;99326.66;;;18.42;75.83
22753;BME280;11543;43.144;24.684;2023-09-18T04:33:09;99342.44;;;18.54;75.90
22753;BME280;11543;43.144;24.684;2023-09-18T04:35:35;99332.22;;;18.56;75.59
22753;BME280;11543;43.144;24.684;2023-09-18T04:38:02;99331.47;;;18.62;75.28
22753;BME280;11543;43.144;24.684;2023-09-18T04:40:27;99345.19;;;18.75;75.46
22753;BME280;11543;43.144;24.684;2023-09-18T04:42:57;99328.22;;;18.73;75.41
22753;BME280;11543;43.144;24.684;2023-09-18T04:45:23;99350.69;;;18.82;75.35
22753;BME280;11543;43.144;24.684;2023-09-18T04:47:48;99334.94;;;18.77;75.32
22753;BME280;11543;43.144;24.684;2023-09-18T04:50:14;99338.97;;;18.81;75.44
22753;BME280;11543;43.144;24.684;2023-09-18T04:52:39;99353.00;;;18.85;75.22
22753;BME280;11543;43.144;24.684;2023-09-18T04:55:08;99344.59;;;18.80;75.69
22753;BME280;11543;43.144;24.684;2023-09-18T04:57:34;99366.19;;;18.88;75.45
22753;BME280;11543;43.144;24.684;2023-09-18T05:00:00;99364.31;;;18.88;75.41
22753;BME280;11543;43.144;24.684;2023-09-18T05:02:25;99371.84;;;18.86;75.87
22753;BME280;11543;43.144;24.684;2023-09-18T05:04:51;99365.34;;;18.87;75.77
22753;BME280;11543;43.144;24.684;2023-09-18T05:07:17;99372.22;;;18.83;76.10
22753;BME280;11543;43.144;24.684;2023-09-18T05:09:42;99355.84;;;18.76;76.08
22753;BME280;11543;43.144;24.684;2023-09-18T05:12:09;99357.88;;;18.68;76.40
22753;BME280;11543;43.144;24.684;2023-09-18T05:14:39;99370.41;;;18.69;76.57
22753;BME280;11543;43.144;24.684;2023-09-18T05:17:06;99368.16;;;18.72;76.70
22753;BME280;11543;43.144;24.684;2023-09-18T05:19:32;99371.31;;;18.76;76.91
22753;BME280;11543;43.144;24.684;2023-09-18T05:21:58;99370.94;;;18.79;77.11
22753;BME280;11543;43.144;24.684;2023-09-18T05:24:25;99374.81;;;18.91;77.13
22753;BME280;11543;43.144;24.684;2023-09-18T05:26:53;99377.38;;;18.99;77.08
22753;BME280;11543;43.144;24.684;2023-09-18T05:29:19;99372.47;;;19.09;76.55
22753;BME280;11543;43.144;24.684;2023-09-18T05:31:45;99370.00;;;19.15;76.81
22753;BME280;11543;43.144;24.684;2023-09-18T05:34:11;99369.22;;;19.21;76.92
22753;BME280;11543;43.144;24.684;2023-09-18T05:36:37;99358.34;;;19.21;76.78
22753;BME280;11543;43.144;24.684;2023-09-18T05:39:06;99348.53;;;19.26;76.81
22753;BME280;11543;43.144;24.684;2023-09-18T05:41:35;99353.38;;;19.31;76.88
22753;BME280;11543;43.144;24.684;2023-09-18T05:44:03;99359.31;;;19.41;76.74
22753;BME280;11543;43.144;24.684;2023-09-18T05:46:30;99374.44;;;19.50;76.52
22753;BME280;11543;43.144;24.684;2023-09-18T05:48:56;99365.72;;;19.55;76.57
22753;BME280;11543;43.144;24.684;2023-09-18T05:51:22;99366.16;;;19.58;76.37
22753;BME280;11543;43.144;24.684;2023-09-18T05:53:48;99379.63;;;19.73;76.17
22753;BME280;11543;43.144;24.684;2023-09-18T05:56:14;99382.63;;;19.85;76.27
22753;BME280;11543;43.144;24.684;2023-09-18T05:58:47;99371.34;;;19.88;75.70
22753;BME280;11543;43.144;24.684;2023-09-18T06:01:12;99376.84;;;19.94;75.62
22753;BME280;11543;43.144;24.684;2023-09-18T06:03:39;99357.31;;;19.91;75.63
22753;BME280;11543;43.144;24.684;2023-09-18T06:06:05;99375.63;;;20.03;75.60
22753;BME280;11543;43.144;24.684;2023-09-18T06:08:31;99373.50;;;19.99;75.59
22753;BME280;11543;43.144;24.684;2023-09-18T06:10:59;99376.06;;;20.07;75.58
22753;BME280;11543;43.144;24.684;2023-09-18T06:13:25;99380.69;;;20.13;75.61
22753;BME280;11543;43.144;24.684;2023-09-18T06:15:53;99380.28;;;20.16;75.41
22753;BME280;11543;43.144;24.684;2023-09-18T06:18:21;99376.94;;;20.14;75.46
22753;BME280;11543;43.144;24.684;2023-09-18T06:20:49;99378.19;;;20.12;75.66
22753;BME280;11543;43.144;24.684;2023-09-18T06:23:15;99378.63;;;20.15;76.14
22753;BME280;11543;43.144;24.684;2023-09-18T06:25:40;99370.63;;;20.14;76.62
22753;BME280;11543;43.144;24.684;2023-09-18T06:28:06;99370.22;;;20.17;76.48
22753;BME280;11543;43.144;24.684;2023-09-18T06:30:32;99396.50;;;20.38;76.48
22753;BME280;11543;43.144;24.684;2023-09-18T06:32:59;99370.72;;;20.33;76.52
22753;BME280;11543;43.144;24.684;2023-09-18T06:35:27;99392.59;;;20.47;76.49
22753;BME280;11543;43.144;24.684;2023-09-18T06:37:55;99396.38;;;20.52;76.55
22753;BME280;11543;43.144;24.684;2023-09-18T06:40:44;99380.84;;;20.46;76.50
22753;BME280;11543;43.144;24.684;2023-09-18T06:43:12;99383.38;;;20.61;76.13
22753;BME280;11543;43.144;24.684;2023-09-18T06:45:48;99379.19;;;20.65;76.22
22753;BME280;11543;43.144;24.684;2023-09-18T06:48:14;99389.75;;;20.81;75.87
22753;BME280;11543;43.144;24.684;2023-09-18T06:50:40;99380.09;;;20.85;75.90
22753;BME280;11543;43.144;24.684;2023-09-18T06:53:06;99372.56;;;20.94;75.57
22753;BME280;11543;43.144;24.684;2023-09-18T06:55:31;99384.31;;;21.08;75.55
22753;BME280;11543;43.144;24.684;2023-09-18T06:57:57;99383.69;;;21.19;75.27
22753;BME280;11543;43.144;24.684;2023-09-18T07:00:23;99383.91;;;21.24;75.21
22753;BME280;11543;43.144;24.684;2023-09-18T07:02:48;99376.34;;;21.26;74.87
22753;BME280;11543;43.144;24.684;2023-09-18T07:05:15;99380.13;;;21.38;74.87
22753;BME280;11543;43.144;24.684;2023-09-18T07:07:40;99383.47;;;21.47;74.45
22753;BME280;11543;43.144;24.684;2023-09-18T07:10:06;99383.88;;;21.50;74.46
22753;BME280;11543;43.144;24.684;2023-09-18T07:12:32;99383.03;;;21.56;74.50
22753;BME280;11543;43.144;24.684;2023-09-18T07:15:02;99390.16;;;21.64;74.34
22753;BME280;11543;43.144;24.684;2023-09-18T07:17:28;99388.50;;;21.70;73.74
22753;BME280;11543;43.144;24.684;2023-09-18T07:19:54;99393.50;;;21.79;73.55
22753;BME280;11543;43.144;24.684;2023-09-18T07:22:21;99400.22;;;21.90;73.17
22753;BME280;11543;43.144;24.684;2023-09-18T07:24:47;99392.00;;;21.90;73.13
22753;BME280;11543;43.144;24.684;2023-09-18T07:27:12;99393.25;;;22.01;72.99
22753;BME280;11543;43.144;24.684;2023-09-18T07:29:38;99392.19;;;22.08;72.83
22753;BME280;11543;43.144;24.684;2023-09-18T07:32:04;99392.19;;;22.08;72.60
22753;BME280;11543;43.144;24.684;2023-09-18T07:34:30;99400.53;;;22.27;72.04
22753;BME280;11543;43.144;24.684;2023-09-18T07:36:55;99380.16;;;22.22;71.72
22753;BME280;11543;43.144;24.684;2023-09-18T07:39:21;99379.09;;;22.23;71.65
22753;BME280;11543;43.144;24.684;2023-09-18T07:41:47;99391.19;;;22.41;71.50
22753;BME280;11543;43.144;24.684;2023-09-18T07:44:19;99397.25;;;22.56;71.02
22753;BME280;11543;43.144;24.684;2023-09-18T07:46:44;99388.53;;;22.72;70.61
22753;BME280;11543;43.144;24.684;2023-09-18T07:49:10;99391.03;;;22.80;70.42
22753;BME280;11543;43.144;24.684;2023-09-18T07:51:35;99391.38;;;22.91;69.93
22753;BME280;11543;43.144;24.684;2023-09-18T07:54:02;99383.34;;;22.96;70.21
22753;BME280;11543;43.144;24.684;2023-09-18T07:56:28;99382.00;;;23.05;69.41
22753;BME280;11543;43.144;24.684;2023-09-18T07:58:56;99385.84;;;23.22;68.58
22753;BME280;11543;43.144;24.684;2023-09-18T08:01:22;99385.56;;;23.30;67.50
22753;BME280;11543;43.144;24.684;2023-09-18T08:03:48;99371.22;;;23.35;66.90
22753;BME280;11543;43.144;24.684;2023-09-18T08:06:14;99366.03;;;23.51;66.89
22753;BME280;11543;43.144;24.684;2023-09-18T08:08:41;99373.47;;;23.69;66.01
22753;BME280;11543;43.144;24.684;2023-09-18T08:11:08;99367.00;;;23.82;64.03
22753;BME280;11543;43.144;24.684;2023-09-18T08:13:36;99366.84;;;23.95;62.75
22753;BME280;11543;43.144;24.684;2023-09-18T08:16:05;99361.72;;;23.99;62.86
22753;BME280;11543;43.144;24.684;2023-09-18T08:18:33;99356.09;;;24.12;62.81
22753;BME280;11543;43.144;24.684;2023-09-18T08:21:00;99359.69;;;24.31;62.40
22753;BME280;11543;43.144;24.684;2023-09-18T08:23:27;99356.53;;;24.45;61.36
22753;BME280;11543;43.144;24.684;2023-09-18T08:25:53;99343.78;;;24.51;59.69
22753;BME280;11543;43.144;24.684;2023-09-18T08:28:22;99348.16;;;24.70;59.09
22753;BME280;11543;43.144;24.684;2023-09-18T08:30:48;99353.19;;;24.85;58.15
22753;BME280;11543;43.144;24.684;2023-09-18T08:33:14;99350.03;;;25.00;57.28
22753;BME280;11543;43.144;24.684;2023-09-18T08:35:39;99334.28;;;25.07;56.20
22753;BME280;11543;43.144;24.684;2023-09-18T08:38:05;99338.50;;;25.21;55.48
22753;BME280;11543;43.144;24.684;2023-09-18T08:40:33;99351.53;;;25.37;54.17
22753;BME280;11543;43.144;24.684;2023-09-18T08:43:00;99340.19;;;25.46;52.17
22753;BME280;11543;43.144;24.684;2023-09-18T08:45:35;99351.41;;;25.56;52.00
22753;BME280;11543;43.144;24.684;2023-09-18T08:48:01;99348.44;;;25.69;52.85
22753;BME280;11543;43.144;24.684;2023-09-18T08:50:29;99339.91;;;25.82;51.69
22753;BME280;11543;43.144;24.684;2023-09-18T08:52:55;99328.94;;;25.82;51.34
22753;BME280;11543;43.144;24.684;2023-09-18T08:55:22;99331.78;;;25.87;51.17
22753;BME280;11543;43.144;24.684;2023-09-18T08:57:49;99325.81;;;25.90;51.39
22753;BME280;11543;43.144;24.684;2023-09-18T09:00:15;99341.06;;;26.10;51.47
22753;BME280;11543;43.144;24.684;2023-09-18T09:02:45;99331.25;;;26.14;51.50
22753;BME280;11543;43.144;24.684;2023-09-18T09:05:11;99316.53;;;26.20;50.51
22753;BME280;11543;43.144;24.684;2023-09-18T09:07:36;99326.53;;;26.38;49.89
22753;BME280;11543;43.144;24.684;2023-09-18T09:10:02;99313.50;;;26.33;49.88
22753;BME280;11543;43.144;24.684;2023-09-18T09:12:57;99321.56;;;26.51;49.54
22753;BME280;11543;43.144;24.684;2023-09-18T09:15:27;99303.19;;;26.40;49.57
22753;BME280;11543;43.144;24.684;2023-09-18T09:18:07;99319.41;;;26.53;49.32
22753;BME280;11543;43.144;24.684;2023-09-18T09:20:34;99321.75;;;26.61;49.23
22753;BME280;11543;43.144;24.684;2023-09-18T09:23:05;99323.50;;;26.67;49.48
22753;BME280;11543;43.144;24.684;2023-09-18T09:25:33;99330.44;;;26.87;48.50
22753;BME280;11543;43.144;24.684;2023-09-18T09:28:03;99329.34;;;27.00;48.49
22753;BME280;11543;43.144;24.684;2023-09-18T09:30:30;99324.25;;;27.08;48.65
22753;BME280;11543;43.144;24.684;2023-09-18T09:32:57;99318.31;;;27.16;47.19
22753;BME280;11543;43.144;24.684;2023-09-18T09:35:26;99322.16;;;27.32;47.24
22753;BME280;11543;43.144;24.684;2023-09-18T09:38:07;99308.34;;;27.49;45.86
22753;BME280;11543;43.144;24.684;2023-09-18T09:40:33;99296.88;;;27.57;45.18
22753;BME280;11543;43.144;24.684;2023-09-18T09:42:58;99307.75;;;27.64;45.37
22753;BME280;11543;43.144;24.684;2023-09-18T09:45:28;99320.44;;;27.81;45.24
22753;BME280;11543;43.144;24.684;2023-09-18T09:47:55;99305.28;;;28.06;44.70
22753;BME280;11543;43.144;24.684;2023-09-18T09:50:21;99310.72;;;28.22;43.56
22753;BME280;11543;43.144;24.684;2023-09-18T09:52:49;99305.66;;;28.36;42.91
22753;BME280;11543;43.144;24.684;2023-09-18T09:55:25;99290.56;;;28.44;42.50
22753;BME280;11543;43.144;24.684;2023-09-18T09:57:59;99303.19;;;28.62;41.40
22753;BME280;11543;43.144;24.684;2023-09-18T10:00:39;99291.63;;;28.65;41.04
22753;BME280;11543;43.144;24.684;2023-09-18T10:03:10;99292.81;;;28.74;41.91
22753;BME280;11543;43.144;24.684;2023-09-18T10:05:39;99295.19;;;28.92;41.48
22753;BME280;11543;43.144;24.684;2023-09-18T10:08:10;99294.47;;;29.07;39.96
22753;BME280;11543;43.144;24.684;2023-09-18T10:10:45;99284.63;;;29.21;38.48
22753;BME280;11543;43.144;24.684;2023-09-18T10:13:36;99290.00;;;29.38;38.58
22753;BME280;11543;43.144;24.684;2023-09-18T10:16:06;99275.38;;;29.42;37.35
22753;BME280;11543;43.144;24.684;2023-09-18T10:19:09;99276.91;;;29.60;35.76
22753;BME280;11543;43.144;24.684;2023-09-18T10:24:24;99272.50;;;29.64;36.13
22753;BME280;11543;43.144;24.684;2023-09-18T10:26:58;99270.88;;;29.73;35.16
22753;BME280;11543;43.144;24.684;2023-09-18T10:29:25;99267.56;;;29.71;35.27
22753;BME280;11543;43.144;24.684;2023-09-18T10:31:54;99259.53;;;29.70;35.40
22753;BME280;11543;43.144;24.684;2023-09-18T10:34:20;99264.84;;;29.82;35.43
22753;BME280;11543;43.144;24.684;2023-09-18T10:36:48;99249.91;;;29.88;35.03
22753;BME280;11543;43.144;24.684;2023-09-18T10:39:14;99254.38;;;29.94;34.74
22753;BME280;11543;43.144;24.684;2023-09-18T10:41:48;99248.00;;;29.93;34.93
22753;BME280;11543;43.144;24.684;2023-09-18T10:44:15;99236.66;;;29.90;34.90
22753;BME280;11543;43.144;24.684;2023-09-18T10:46:44;99240.25;;;29.95;34.98
22753;BME280;11543;43.144;24.684;2023-09-18T10:49:10;99240.03;;;30.02;33.98
22753;BME280;11543;43.144;24.684;2023-09-18T10:51:37;99236.72;;;30.10;33.91
22753;BME280;11543;43.144;24.684;2023-09-18T10:54:10;99224.56;;;30.16;33.71
22753;BME280;11543;43.144;24.684;2023-09-18T10:56:35;99237.88;;;30.24;33.22
22753;BME280;11543;43.144;24.684;2023-09-18T11:01:52;99228.78;;;30.49;33.96
22753;BME280;11543;43.144;24.684;2023-09-18T11:04:19;99231.88;;;30.68;32.54
22753;BME280;11543;43.144;24.684;2023-09-18T11:09:25;99227.44;;;30.92;31.87
22753;BME280;11543;43.144;24.684;2023-09-18T11:15:04;99226.03;;;31.25;31.07
22753;BME280;11543;43.144;24.684;2023-09-18T11:17:32;99214.69;;;31.22;28.65
22753;BME280;11543;43.144;24.684;2023-09-18T11:22:57;99216.88;;;31.20;28.80
22753;BME280;11543;43.144;24.684;2023-09-18T11:25:37;99216.88;;;31.20;28.64
22753;BME280;11543;43.144;24.684;2023-09-18T11:28:08;99219.41;;;31.21;28.19
22753;BME280;11543;43.144;24.684;2023-09-18T11:30:37;99197.47;;;31.15;27.67
22753;BME280;11543;43.144;24.684;2023-09-18T11:33:05;99205.81;;;31.15;27.33
22753;BME280;11543;43.144;24.684;2023-09-18T11:35:35;99194.72;;;30.99;27.51
22753;BME280;11543;43.144;24.684;2023-09-18T11:38:11;99210.22;;;31.05;27.95
22753;BME280;11543;43.144;24.684;2023-09-18T11:40:38;99208.84;;;31.03;28.07
22753;BME280;11543;43.144;24.684;2023-09-18T11:43:22;99210.75;;;31.13;27.87
22753;BME280;11543;43.144;24.684;2023-09-18T11:45:59;99203.00;;;31.20;28.24
22753;BME280;11543;43.144;24.684;2023-09-18T11:48:26;99200.22;;;31.40;28.20
22753;BME280;11543;43.144;24.684;2023-09-18T12:04:58;99189.38;;;32.08;26.63
22753;BME280;11543;43.144;24.684;2023-09-18T12:07:53;99181.06;;;32.08;26.58
22753;BME280;11543;43.144;24.684;2023-09-18T12:10:51;99176.53;;;32.17;25.70
22753;BME280;11543;43.144;24.684;2023-09-18T12:13:40;99171.63;;;32.04;25.75
22753;BME280;11543;43.144;24.684;2023-09-18T12:16:43;99164.47;;;31.93;26.30
22753;BME280;11543;43.144;24.684;2023-09-18T12:19:22;99156.72;;;31.90;26.23
22753;BME280;11543;43.144;24.684;2023-09-18T12:21:49;99172.75;;;31.98;26.94
22753;BME280;11543;43.144;24.684;2023-09-18T12:24:30;99163.88;;;31.96;26.53
22753;BME280;11543;43.144;24.684;2023-09-18T12:27:13;99149.97;;;32.01;26.01
22753;BME280;11543;43.144;24.684;2023-09-18T12:36:35;99143.69;;;32.35;25.88
22753;BME280;11543;43.144;24.684;2023-09-18T12:39:13;99142.50;;;32.41;25.70
22753;BME280;11543;43.144;24.684;2023-09-18T12:42:04;99155.69;;;32.59;26.01
22753;BME280;11543;43.144;24.684;2023-09-18T12:47:33;99130.63;;;32.64;26.03
22753;BME280;11543;43.144;24.684;2023-09-18T12:50:22;99146.66;;;32.77;25.88
22753;BME280;11543;43.144;24.684;2023-09-18T12:53:10;99126.91;;;32.79;25.34
22753;BME280;11543;43.144;24.684;2023-09-18T12:55:37;99138.16;;;32.92;25.29
22753;BME280;11543;43.144;24.684;2023-09-18T12:58:02;99132.28;;;32.99;25.57
22753;BME280;11543;43.144;24.684;2023-09-18T13:00:34;99120.09;;;32.95;25.54
22753;BME280;11543;43.144;24.684;2023-09-18T13:03:00;99111.97;;;32.99;25.15
22753;BME280;11543;43.144;24.684;2023-09-18T13:05:34;99118.66;;;32.98;25.53
22753;BME280;11543;43.144;24.684;2023-09-18T13:08:05;99128.69;;;32.93;26.01
22753;BME280;11543;43.144;24.684;2023-09-18T13:10:45;99103.13;;;32.91;26.13
22753;BME280;11543;43.144;24.684;2023-09-18T13:13:19;99123.63;;;33.01;25.37
22753;BME280;11543;43.144;24.684;2023-09-18T13:15:48;99105.38;;;32.89;25.66
22753;BME280;11543;43.144;24.684;2023-09-18T13:21:32;99118.97;;;32.91;26.01
22753;BME280;11543;43.144;24.684;2023-09-18T13:24:36;99124.91;;;32.84;26.06
22753;BME280;11543;43.144;24.684;2023-09-18T13:30:41;99120.09;;;32.61;25.83
22753;BME280;11543;43.144;24.684;2023-09-18T13:33:15;99108.59;;;32.44;26.31
22753;BME280;11543;43.144;24.684;2023-09-18T13:35:44;99114.16;;;32.44;26.54
22753;BME280;11543;43.144;24.684;2023-09-18T13:38:11;99088.97;;;32.35;26.86
22753;BME280;11543;43.144;24.684;2023-09-18T13:40:47;99096.38;;;32.45;26.63
22753;BME280;11543;43.144;24.684;2023-09-18T13:43:21;99100.22;;;32.49;26.68